createdAt,value
2018-07-31T00:10:54.632Z,21.60
2018-07-31T00:14:58.491Z,21.60
2018-07-31T00:19:02.416Z,21.50
2018-07-31T00:35:17.043Z,21.40
2018-07-31T00:47:28.071Z,21.40
2018-07-31T00:51:31.989Z,21.30
2018-07-31T00:55:35.872Z,21.30
2018-07-31T01:03:43.319Z,21.20
2018-07-31T01:07:47.537Z,21.20
2018-07-31T01:11:57.863Z,21.10
2018-07-31T01:16:01.864Z,21.10
2018-07-31T01:24:09.903Z,21.10
2018-07-31T01:28:13.756Z,21.10
2018-07-31T01:32:17.687Z,21.00
2018-07-31T01:44:28.713Z,21.00
2018-07-31T01:56:39.697Z,21.10
2018-07-31T02:04:47.137Z,21.00
2018-07-31T02:16:58.223Z,20.90
2018-07-31T02:21:02.128Z,20.80
2018-07-31T02:25:06.005Z,20.80
2018-07-31T02:33:13.518Z,20.60
2018-07-31T02:37:17.457Z,20.50
2018-07-31T02:41:21.320Z,20.50
2018-07-31T02:45:26.044Z,20.50
2018-07-31T02:53:33.554Z,20.40
2018-07-31T02:57:37.672Z,20.40
2018-07-31T03:01:41.545Z,20.40
2018-07-31T03:09:49.125Z,20.30
2018-07-31T03:13:53.076Z,20.30
2018-07-31T03:17:56.944Z,20.30
2018-07-31T03:30:07.869Z,20.40
2018-07-31T04:02:37.399Z,20.50
2018-07-31T04:06:41.299Z,20.50
2018-07-31T04:14:48.900Z,20.50
2018-07-31T04:26:59.905Z,20.60
2018-07-31T04:31:03.794Z,20.70
2018-07-31T04:43:16.508Z,20.90
2018-07-31T04:55:27.487Z,21.30
2018-07-31T05:27:57.548Z,22.40
2018-07-31T05:32:01.396Z,22.60
2018-07-31T05:44:13.167Z,23.10
2018-07-31T05:48:17.020Z,23.20
2018-07-31T05:56:24.676Z,23.40
2018-07-31T06:04:32.129Z,23.30
2018-07-31T06:16:43.249Z,23.70
2018-07-31T06:37:01.336Z,25.90
2018-07-31T06:49:12.380Z,25.90
2018-07-31T06:53:16.304Z,25.80
2018-07-31T07:05:27.650Z,26.20
2018-07-31T07:25:46.007Z,25.90
2018-07-31T07:29:51.983Z,25.90
2018-07-31T07:42:02.895Z,26.40
2018-07-31T08:02:21.011Z,27.80
2018-07-31T08:10:28.512Z,27.80
2018-07-31T08:14:32.647Z,27.70
2018-07-31T08:18:36.548Z,27.50
2018-07-31T08:47:01.644Z,27.20
2018-07-31T08:59:12.613Z,27.50
2018-07-31T09:03:16.471Z,27.40
2018-07-31T09:23:34.760Z,28.00
2018-07-31T09:35:45.884Z,28.70
2018-07-31T09:47:56.849Z,28.90
2018-07-31T09:52:00.697Z,29.10
2018-07-31T10:04:11.694Z,29.60
2018-07-31T10:20:31.740Z,30.80
2018-07-31T10:32:42.720Z,31.10
2018-07-31T10:36:46.609Z,30.70
2018-07-31T10:48:57.553Z,29.10
2018-07-31T11:05:12.076Z,28.50
2018-07-31T11:09:15.991Z,28.40
2018-07-31T11:13:20.067Z,28.30
2018-07-31T11:21:27.400Z,28.40
2018-07-31T11:25:31.531Z,28.20
2018-07-31T11:45:49.604Z,28.20
2018-07-31T11:49:53.676Z,28.10
2018-07-31T11:53:57.545Z,28.00
2018-07-31T12:06:08.740Z,27.70
2018-07-31T12:26:26.975Z,27.40
2018-07-31T12:38:38.059Z,26.90
2018-07-31T12:42:41.928Z,27.00
2018-07-31T13:03:00.872Z,27.00
2018-07-31T13:07:04.736Z,27.00
2018-07-31T13:19:16.129Z,26.80
2018-07-31T13:23:19.978Z,26.80
2018-07-31T13:35:30.977Z,26.80
2018-07-31T13:55:49.329Z,26.70
2018-07-31T13:59:53.232Z,26.70
2018-07-31T14:12:04.153Z,26.70
2018-07-31T14:40:29.775Z,26.60
2018-07-31T14:44:33.640Z,26.50
2018-07-31T14:48:37.524Z,26.50
2018-07-31T15:17:02.978Z,26.10
2018-07-31T15:29:13.963Z,26.00
2018-07-31T15:33:17.923Z,26.00
2018-07-31T15:37:21.915Z,25.90
2018-07-31T15:49:33.024Z,26.00
2018-07-31T16:09:57.618Z,25.70
2018-07-31T16:14:01.542Z,25.70
2018-07-31T16:26:12.804Z,25.50
2018-07-31T16:30:17.215Z,25.50
2018-07-31T16:34:21.100Z,25.50
2018-07-31T16:42:28.468Z,25.40
2018-07-31T16:54:40.126Z,25.20
2018-07-31T16:58:43.972Z,25.10
2018-07-31T17:14:58.610Z,24.90
2018-07-31T17:31:13.321Z,24.60
2018-07-31T17:43:24.296Z,24.40
2018-07-31T17:55:36.709Z,24.30
2018-07-31T18:15:54.710Z,23.90
2018-07-31T18:28:05.796Z,23.60
2018-07-31T18:32:09.942Z,23.60
2018-07-31T18:44:20.901Z,23.30
2018-07-31T19:04:39.238Z,22.70
2018-07-31T19:08:43.108Z,22.60
2018-07-31T19:37:08.457Z,21.70
2018-07-31T19:49:20.093Z,21.20
2018-07-31T20:05:37.252Z,20.80
2018-07-31T20:17:49.316Z,20.50
2018-07-31T20:38:07.800Z,19.90
2018-07-31T20:42:11.660Z,19.90
2018-07-31T20:54:22.944Z,19.70
2018-07-31T20:58:27.416Z,19.60
2018-07-31T21:02:31.312Z,19.60
2018-07-31T21:10:38.841Z,19.40
2018-07-31T21:14:42.696Z,19.30
2018-07-31T21:26:53.991Z,19.00
2018-07-31T21:30:57.857Z,19.00
2018-07-31T21:43:11.045Z,18.80
2018-07-31T21:51:18.577Z,18.70
2018-07-31T22:03:29.520Z,18.40
2018-07-31T22:07:33.446Z,18.20
2018-07-31T22:23:48.782Z,17.90
2018-07-31T22:31:56.192Z,17.60
2018-07-31T22:44:07.120Z,17.60
2018-07-31T22:48:11.044Z,17.60
2018-07-31T23:00:28.161Z,17.40
2018-07-31T23:12:39.098Z,17.30
2018-07-31T23:20:46.609Z,17.20
2018-07-31T23:32:57.812Z,17.10
2018-07-31T23:37:01.680Z,17.00
